Time;durP1;ratioP1;P1;durP2;ratioP2;P2;SDS_P1;SDS_P2;PMS_P1;PMS_P2;Temp;Humidity;BMP_temperature;BMP_pressure;BME280_temperature;BME280_humidity;BME280_pressure;Samples;Min_cycle;Max_cycle;Signal;HPM_P1;HPM_P2
2021/09/01 00:00:37;;;;;;;23.20;13.10;;;;;;;8.99;91.54;91491.59;5025676;28;20484;-87
2021/09/01 00:03:14;;;;;;;24.42;12.93;;;;;;;9.00;91.28;91490.53;5044105;28;20048;-83
2021/09/01 00:05:51;;;;;;;26.05;12.82;;;;;;;8.86;92.07;91490.66;5043289;28;20107;-85
2021/09/01 00:08:26;;;;;;;29.15;13.30;;;;;;;8.86;92.20;91490.66;5027383;28;20500;-85
2021/09/01 00:11:04;;;;;;;20.92;12.30;;;;;;;8.95;92.02;91478.44;5043117;28;20024;-85
2021/09/01 00:13:38;;;;;;;32.13;15.50;;;;;;;9.16;92.19;91488.28;5042718;28;20485;-85
2021/09/01 00:19:05;;;;;;;32.92;16.90;;;;;;;9.21;92.34;91486.28;5062760;28;20102;-86
2021/09/01 00:21:43;;;;;;;31.25;15.88;;;;;;;9.39;91.54;91479.25;5041731;28;20059;-86
2021/09/01 00:24:21;;;;;;;30.02;15.65;;;;;;;9.26;91.99;91483.53;5007904;28;20017;-86
2021/09/01 00:26:58;;;;;;;26.90;14.77;;;;;;;9.41;91.34;91479.72;5020548;28;20065;-86
2021/09/01 00:29:30;;;;;;;33.15;15.68;;;;;;;9.29;91.50;91484.75;5005705;28;20033;-86
2021/09/01 00:32:02;;;;;;;32.55;16.25;;;;;;;9.18;91.58;91483.50;4988846;28;20079;-89
2021/09/01 00:34:38;;;;;;;30.80;14.88;;;;;;;9.30;91.36;91478.50;4988860;28;20485;-86
2021/09/01 00:37:15;;;;;;;29.08;15.75;;;;;;;9.26;91.40;91477.56;4989609;28;20489;-87
2021/09/01 00:39:51;;;;;;;30.33;15.75;;;;;;;9.39;91.04;91481.84;5021209;28;20025;-85
2021/09/01 00:42:30;;;;;;;27.58;15.57;;;;;;;9.38;90.82;91472.50;5023443;28;20033;-87
2021/09/01 00:45:08;;;;;;;31.20;15.15;;;;;;;9.30;91.05;91483.69;5021970;28;20028;-86
2021/09/01 00:47:46;;;;;;;28.33;15.38;;;;;;;9.40;90.61;91474.78;4991178;28;20026;-87
2021/09/01 00:50:25;;;;;;;27.67;14.80;;;;;;;9.31;90.87;91485.97;5007239;28;20033;-88
2021/09/01 00:53:05;;;;;;;30.42;15.77;;;;;;;9.25;90.71;91481.22;4992189;28;20030;-88
2021/09/01 00:55:39;;;;;;;29.45;15.80;;;;;;;9.25;90.73;91491.63;5010764;28;20022;-87
2021/09/01 00:58:15;;;;;;;31.15;14.98;;;;;;;9.21;90.80;91485.50;5030447;28;20125;-87
2021/09/01 01:03:44;;;;;;;28.90;14.30;;;;;;;9.13;90.21;91492.25;5036298;28;20095;-86
2021/09/01 01:06:21;;;;;;;29.27;14.05;;;;;;;9.20;90.54;91492.56;5023618;28;20035;-86
2021/09/01 01:09:00;;;;;;;31.40;15.45;;;;;;;9.29;90.32;91495.16;5040402;28;20086;-86
2021/09/01 01:11:35;;;;;;;28.45;13.75;;;;;;;9.15;90.38;91497.13;5023858;28;20028;-86
2021/09/01 01:14:29;;;;;;;28.85;14.95;;;;;;;9.12;90.56;91489.94;5029048;28;20048;-86
2021/09/01 01:17:05;;;;;;;30.67;15.40;;;;;;;9.17;90.91;91500.97;5040334;28;20032;-86
2021/09/01 01:19:50;;;;;;;27.88;15.07;;;;;;;9.21;90.92;91501.13;5034898;28;20032;-85
2021/09/01 01:22:24;;;;;;;26.17;14.32;;;;;;;9.13;91.21;91504.47;5041858;28;20099;-86
2021/09/01 01:25:11;;;;;;;28.80;14.50;;;;;;;9.15;90.98;91503.13;5023137;28;20021;-86
2021/09/01 01:27:56;;;;;;;28.15;14.02;;;;;;;9.17;90.56;91502.78;5001301;28;20505;-87
2021/09/01 01:30:26;;;;;;;;;;;;;;;9.08;91.23;91500.97;5017620;28;20056;-86
2021/09/01 01:33:07;;;;;;;26.58;13.18;;;;;;;9.17;90.49;91502.78;5037208;28;19999;-85
2021/09/01 01:35:47;;;;;;;30.92;14.48;;;;;;;8.97;91.54;91507.50;5022715;28;20025;-86
2021/09/01 01:38:25;;;;;;;25.60;13.32;;;;;;;9.13;90.57;91499.28;5023405;28;20028;-87
2021/09/01 01:41:02;;;;;;;28.85;14.07;;;;;;;9.08;91.06;91498.34;5054915;28;20020;-86
2021/09/01 01:43:41;;;;;;;25.85;13.68;;;;;;;9.00;91.37;91501.69;5023098;28;20021;-86
2021/09/01 01:46:15;;;;;;;29.48;14.88;;;;;;;9.09;91.33;91507.69;5022824;28;20035;-85
2021/09/01 01:48:49;;;;;;;30.45;14.68;;;;;;;9.08;91.39;91498.34;5038448;28;20070;-86
2021/09/01 01:51:26;;;;;;;28.55;14.40;;;;;;;9.06;91.86;91504.94;5038515;28;20029;-86
2021/09/01 01:54:05;;;;;;;32.33;14.57;;;;;;;9.18;91.79;91501.72;5039466;28;20020;-86
2021/09/01 01:56:44;;;;;;;26.05;13.93;;;;;;;9.10;91.85;91511.81;5038308;28;20024;-86
2021/09/01 01:59:20;;;;;;;28.13;14.98;;;;;;;9.17;91.58;91508.75;5022496;28;20025;-84
2021/09/01 02:01:58;;;;;;;27.77;13.90;;;;;;;9.22;91.41;91510.44;5039016;28;20429;-85
2021/09/01 02:04:35;;;;;;;28.70;14.55;;;;;;;9.12;91.93;91510.72;5022016;28;20032;-86
2021/09/01 02:07:09;;;;;;;27.20;14.02;;;;;;;9.09;92.17;91505.09;5022484;28;20024;-87
2021/09/01 02:09:50;;;;;;;26.50;13.13;;;;;;;9.30;91.55;91509.69;5038681;28;20027;-86
2021/09/01 02:12:29;;;;;;;24.33;13.35;;;;;;;9.28;91.67;91504.78;5039624;28;20028;-86
2021/09/01 02:15:09;;;;;;;29.90;15.35;;;;;;;9.34;91.49;91502.81;5022489;28;20029;-85
2021/09/01 02:17:47;;;;;;;31.98;16.38;;;;;;;9.38;91.49;91501.13;5022437;28;20025;-85
2021/09/01 02:20:25;;;;;;;27.90;14.80;;;;;;;9.33;91.62;91503.91;5021449;28;20561;-85
2021/09/01 02:23:06;;;;;;;32.03;15.85;;;;;;;9.34;91.91;91505.41;5021575;28;20028;-87
2021/09/01 02:25:43;;;;;;;32.40;15.23;;;;;;;9.36;91.92;91503.25;5053009;28;20496;-85
2021/09/01 02:28:21;;;;;;;28.05;13.65;;;;;;;9.28;91.95;91502.19;5018513;28;20024;-85
2021/09/01 02:30:55;;;;;;;29.90;15.00;;;;;;;9.28;92.12;91504.03;5017568;28;20029;-85
2021/09/01 02:33:34;;;;;;;33.30;15.70;;;;;;;9.36;92.26;91507.69;5033917;28;20028;-86
2021/09/01 02:36:08;;;;;;;31.45;14.13;;;;;;;9.31;92.39;91500.81;5018705;28;20021;-86
2021/09/01 02:38:47;;;;;;;31.55;15.18;;;;;;;9.33;92.39;91499.44;5008380;28;20493;-87
2021/09/01 02:41:24;;;;;;;27.75;14.32;;;;;;;9.35;92.50;91501.72;5023710;28;20636;-87
2021/09/01 02:44:04;;;;;;;32.97;15.05;;;;;;;9.33;92.38;91504.66;5007100;28;20033;-87
2021/09/01 02:46:42;;;;;;;32.42;14.50;;;;;;;9.73;91.10;91508.94;5007348;28;20025;-86
2021/09/01 02:49:17;;;;;;;27.58;14.13;;;;;;;9.67;90.83;91502.34;5023779;28;20036;-87
2021/09/01 02:51:56;;;;;;;28.60;14.75;;;;;;;9.48;91.59;91500.06;5008242;28;20415;-85
2021/09/01 02:54:33;;;;;;;31.45;14.32;;;;;;;9.53;91.74;91508.47;5041290;28;20048;-87
2021/09/01 02:57:08;;;;;;;30.02;15.23;;;;;;;9.58;91.49;91499.75;5024736;28;20031;-87
2021/09/01 02:59:42;;;;;;;32.20;14.85;;;;;;;9.54;91.54;91504.03;5008973;28;20634;-85
2021/09/01 03:02:20;;;;;;;30.08;14.32;;;;;;;9.63;91.33;91497.00;5042171;28;20025;-88
2021/09/01 03:04:58;;;;;;;30.48;15.00;;;;;;;9.72;90.00;91497.00;5027246;28;20436;-88
2021/09/01 03:07:27;;;;;;;28.67;15.65;;;;;;;9.66;90.81;91495.63;5010087;28;20021;-88
2021/09/01 03:10:07;;;;;;;31.35;15.02;;;;;;;9.53;91.10;91500.66;5032703;28;20024;-86
2021/09/01 03:12:39;;;;;;;29.05;14.13;;;;;;;9.65;90.85;91501.91;5016341;28;20116;-85
2021/09/01 03:15:18;;;;;;;26.33;15.07;;;;;;;9.56;90.80;91492.25;5022970;28;20024;-85
2021/09/01 03:17:56;;;;;;;29.63;15.40;;;;;;;9.47;91.65;91491.50;5038746;28;20448;-85
2021/09/01 03:20:31;;;;;;;33.33;15.88;;;;;;;9.50;91.18;91490.88;5038971;28;20025;-85
2021/09/01 03:23:09;;;;;;;27.05;14.10;;;;;;;9.48;91.51;91484.47;5038999;28;20048;-85
2021/09/01 03:25:44;;;;;;;28.70;14.82;;;;;;;9.73;90.48;91490.72;5020919;28;20029;-85
2021/09/01 03:28:21;;;;;;;27.52;14.13;;;;;;;9.60;90.89;91479.38;5002656;28;20030;-86
2021/09/01 03:30:54;;;;;;;29.08;14.20;;;;;;;9.52;91.13;91474.97;5019171;28;20318;-85
2021/09/01 03:33:33;;;;;;;28.50;14.65;;;;;;;9.55;90.65;91469.91;5002328;28;20048;-85
2021/09/01 03:36:12;;;;;;;30.58;15.45;;;;;;;9.53;90.46;91482.44;4987443;28;20025;-85
2021/09/01 03:38:51;;;;;;;30.20;14.57;;;;;;;9.49;90.63;91476.34;5004208;28;20034;-85
2021/09/01 03:41:27;;;;;;;23.83;13.05;;;;;;;9.46;90.50;91479.53;4987562;28;20052;-85
2021/09/01 03:44:06;;;;;;;26.80;13.60;;;;;;;9.47;90.61;91475.09;5003753;28;20482;-86
2021/09/01 03:46:42;;;;;;;25.27;13.40;;;;;;;9.47;90.60;91473.28;5002563;28;20060;-86
2021/09/01 03:49:24;;;;;;;23.88;13.10;;;;;;;9.44;90.57;91473.13;5018917;28;20029;-85
2021/09/01 03:52:04;;;;;;;22.40;12.35;;;;;;;9.72;89.27;91478.78;5004258;28;20374;-85
2021/09/01 03:54:45;;;;;;;25.60;13.27;;;;;;;9.53;89.87;91487.66;5018861;28;20031;-87
2021/09/01 03:57:25;;;;;;;32.00;14.20;;;;;;;9.48;90.49;91479.25;5001845;28;20412;-85
2021/09/01 03:59:56;;;;;;;26.75;12.77;;;;;;;9.47;90.71;91485.50;5018358;28;20018;-87
2021/09/01 04:02:36;;;;;;;28.42;14.52;;;;;;;9.40;90.52;91478.19;5017733;28;20025;-86
2021/09/01 04:05:15;;;;;;;29.05;14.57;;;;;;;9.38;90.47;91485.53;5001158;28;20022;-86
2021/09/01 04:07:56;;;;;;;24.40;13.68;;;;;;;9.36;90.87;91479.84;5038825;28;20024;-86
2021/09/01 04:10:26;;;;;;;26.92;13.40;;;;;;;9.33;91.00;91480.47;5041442;28;20028;-86
2021/09/01 04:13:02;;;;;;;25.48;12.90;;;;;;;9.46;90.08;91487.34;5040219;28;20451;-86
2021/09/01 04:18:10;;;;;;;22.73;13.07;;;;;;;9.33;90.26;91478.66;5102768;22;20053;-87
2021/09/01 04:20:47;;;;;;;26.25;13.55;;;;;;;9.27;90.21;91474.66;5005155;28;20044;-91
2021/09/01 04:23:27;;;;;;;28.38;13.63;;;;;;;9.21;90.44;91485.50;5003591;28;20112;-90
2021/09/01 04:26:06;;;;;;;25.95;13.57;;;;;;;9.12;90.64;91484.72;5021060;28;20027;-89
2021/09/01 04:28:39;;;;;;;26.67;13.18;;;;;;;9.11;90.67;91486.56;5004219;28;20032;-88
2021/09/01 04:31:14;;;;;;;26.00;12.38;;;;;;;9.05;90.20;91493.75;5004702;28;20059;-89
2021/09/01 04:33:50;;;;;;;27.00;13.02;;;;;;;9.02;90.16;91483.97;5003922;28;20029;-90
2021/09/01 04:36:24;;;;;;;23.67;12.20;;;;;;;9.01;90.52;91497.25;5000049;28;20033;-89
2021/09/01 04:39:03;;;;;;;26.45;12.70;;;;;;;8.96;90.01;91490.38;5016629;28;20049;-89
2021/09/01 04:41:42;;;;;;;22.10;12.23;;;;;;;8.96;89.93;91479.97;5001081;28;20405;-89
2021/09/01 04:44:20;;;;;;;21.30;11.70;;;;;;;9.07;89.61;91481.22;5000388;28;20018;-91
2021/09/01 04:46:57;;;;;;;27.45;12.77;;;;;;;9.07;89.65;91485.66;5001148;28;20026;-89
2021/09/01 04:49:33;;;;;;;24.33;13.10;;;;;;;8.89;89.75;91479.66;5001146;28;20033;-90
2021/09/01 04:52:11;;;;;;;25.85;13.65;;;;;;;8.93;90.01;91495.41;4984467;28;20038;-89
2021/09/01 04:54:47;;;;;;;24.58;13.75;;;;;;;8.93;89.87;91488.38;5000720;28;20030;-89
2021/09/01 04:57:25;;;;;;;24.50;12.95;;;;;;;8.89;89.74;91492.66;5000648;28;20108;-88
2021/09/01 05:00:02;;;;;;;24.42;13.40;;;;;;;8.80;89.76;91497.09;5000168;28;20052;-89
2021/09/01 05:02:40;;;;;;;26.17;12.73;;;;;;;8.75;89.94;91497.22;5000946;28;20038;-89
2021/09/01 05:05:14;;;;;;;27.95;13.63;;;;;;;8.63;89.97;91499.63;5000851;28;20448;-90
2021/09/01 05:07:49;;;;;;;25.02;12.68;;;;;;;8.67;89.52;91493.53;5000252;28;20029;-89
2021/09/01 05:10:19;;;;;;;24.48;12.05;;;;;;;8.64;89.66;91506.34;4999688;28;20037;-89
2021/09/01 05:12:59;;;;;;;23.40;12.07;;;;;;;8.59;90.07;91515.81;4999750;28;20025;-89
2021/09/01 05:15:31;;;;;;;21.60;11.95;;;;;;;8.78;88.80;91505.16;5000037;28;20128;-89
2021/09/01 05:18:08;;;;;;;21.80;11.25;;;;;;;8.88;88.05;91503.38;4999852;28;20025;-89
2021/09/01 05:20:47;;;;;;;21.95;10.88;;;;;;;8.89;87.95;91500.44;5000101;28;20033;-89
2021/09/01 05:23:21;;;;;;;23.75;12.52;;;;;;;8.57;89.12;91502.34;5001527;28;20032;-89
2021/09/01 05:25:56;;;;;;;20.95;10.57;;;;;;;8.55;89.20;91501.91;5030641;28;20049;-89
2021/09/01 05:28:35;;;;;;;22.42;11.48;;;;;;;8.70;88.82;91498.13;4999765;28;20036;-90
2021/09/01 05:31:10;;;;;;;22.58;12.18;;;;;;;8.61;89.47;91500.69;5000969;28;20112;-90
2021/09/01 05:33:39;;;;;;;;;;;;;;;8.71;89.19;91509.28;5050392;28;20031;-89
2021/09/01 05:36:17;;;;;;;21.13;10.98;;;;;;;8.71;89.35;91511.88;5038074;28;19966;-90
2021/09/01 05:38:57;;;;;;;21.30;11.82;;;;;;;8.64;89.62;91509.72;5022828;28;20028;-89
2021/09/01 05:41:33;;;;;;;26.65;12.52;;;;;;;8.72;88.91;91521.19;5018661;28;20485;-90
2021/09/01 05:44:09;;;;;;;22.73;12.30;;;;;;;8.80;88.84;91512.69;5039489;28;20031;-90
2021/09/01 05:46:43;;;;;;;18.15;11.27;;;;;;;8.90;88.22;91512.38;5022475;28;20024;-89
2021/09/01 05:49:15;;;;;;;22.80;11.57;;;;;;;8.81;88.45;91503.81;5008892;28;20028;-90
2021/09/01 05:51:53;;;;;;;22.92;11.95;;;;;;;8.89;88.68;91510.84;4998940;28;20034;-90
2021/09/01 05:54:28;;;;;;;19.85;11.20;;;;;;;9.02;87.95;91514.41;4983094;28;20025;-89
2021/09/01 05:57:33;;;;;;;22.48;10.95;;;;;;;9.03;88.12;91523.72;4999211;28;20033;-89
2021/09/01 06:00:22;;;;;;;19.37;10.20;;;;;;;9.05;88.63;91524.97;5040912;28;20107;-88
2021/09/01 06:02:56;;;;;;;24.65;12.40;;;;;;;9.05;89.13;91526.81;5018387;28;20036;-90
2021/09/01 06:05:27;;;;;;;21.58;10.85;;;;;;;9.12;88.57;91518.53;5002420;28;20028;-89
2021/09/01 06:08:02;;;;;;;27.92;11.73;;;;;;;9.16;88.63;91522.06;5018371;28;20070;-89
2021/09/01 06:10:37;;;;;;;22.52;11.65;;;;;;;9.30;88.74;91522.72;5018099;28;20028;-89
2021/09/01 06:13:15;;;;;;;20.52;11.48;;;;;;;9.46;87.94;91523.78;5002434;28;20033;-89
2021/09/01 06:15:51;;;;;;;23.05;11.68;;;;;;;9.40;87.31;91519.81;5002146;28;20029;-89
2021/09/01 06:18:27;;;;;;;21.45;12.48;;;;;;;9.47;87.79;91520.13;5001988;28;20029;-89
2021/09/01 06:21:04;;;;;;;19.02;11.23;;;;;;;9.42;87.13;91516.88;5002034;28;20029;-91
2021/09/01 06:23:39;;;;;;;22.25;11.82;;;;;;;9.57;86.89;91511.97;5002581;28;20103;-89
2021/09/01 06:26:11;;;;;;;18.52;10.20;;;;;;;9.74;86.22;91516.41;4998629;28;20053;-89
2021/09/01 06:28:44;;;;;;;19.23;11.40;;;;;;;9.65;86.33;91517.53;5006814;28;20424;-89
2021/09/01 06:31:19;;;;;;;18.73;11.15;;;;;;;9.62;86.98;91515.53;4998104;28;20065;-90
2021/09/01 06:33:53;;;;;;;19.55;11.00;;;;;;;9.60;86.91;91513.22;5029360;28;20517;-89
2021/09/01 06:36:29;;;;;;;18.10;10.55;;;;;;;9.76;87.16;91516.13;4997982;28;20115;-90
2021/09/01 06:39:04;;;;;;;20.30;10.93;;;;;;;9.74;86.81;91516.41;4997737;28;20030;-89
2021/09/01 06:41:42;;;;;;;20.35;11.07;;;;;;;9.99;87.67;91514.84;4997442;28;20033;-89
2021/09/01 06:44:19;;;;;;;20.52;10.85;;;;;;;10.04;85.39;91517.31;5014126;28;20026;-89
2021/09/01 06:46:55;;;;;;;21.95;10.60;;;;;;;10.09;85.84;91518.22;5001593;28;20482;-90
2021/09/01 06:49:30;;;;;;;19.25;10.10;;;;;;;10.15;85.44;91515.16;5004133;28;20029;-90
2021/09/01 06:52:08;;;;;;;17.67;10.13;;;;;;;10.08;85.24;91521.91;5036121;28;20468;-89
2021/09/01 06:54:46;;;;;;;17.73;10.65;;;;;;;10.13;85.75;91519.88;5020701;28;20095;-90
2021/09/01 06:57:24;;;;;;;17.60;9.93;;;;;;;10.32;85.04;91519.59;5003709;28;20111;-89
2021/09/01 06:59:59;;;;;;;20.25;10.75;;;;;;;10.44;84.25;91527.50;5004702;28;20063;-89
2021/09/01 07:02:32;;;;;;;17.65;9.68;;;;;;;10.44;83.39;91530.13;5004727;28;20400;-89
2021/09/01 07:05:07;;;;;;;21.52;9.73;;;;;;;10.53;84.17;91523.03;5043603;28;20028;-89
2021/09/01 07:07:52;;;;;;;18.67;9.15;;;;;;;10.69;82.48;91519.91;5060440;28;20048;-90
2021/09/01 07:10:23;;;;;;;;;;;;;;;10.52;83.75;91520.72;5059575;28;20064;-90
2021/09/01 07:13:02;;;;;;;18.67;10.20;;;;;;;10.74;83.23;91524.94;5043096;28;19908;-89
2021/09/01 07:15:39;;;;;;;15.52;8.57;;;;;;;10.77;83.58;91529.53;5028400;28;20036;-89
2021/09/01 07:18:12;;;;;;;14.07;7.70;;;;;;;10.85;82.52;91531.34;5028100;28;20056;-90
2021/09/01 07:20:46;;;;;;;15.13;8.05;;;;;;;10.87;81.88;91521.34;5043865;28;20024;-90
2021/09/01 07:23:24;;;;;;;15.73;7.80;;;;;;;10.83;80.32;91527.53;5043505;28;20021;-89
2021/09/01 07:25:58;;;;;;;18.63;8.15;;;;;;;10.83;81.42;91530.88;5019814;28;20486;-89
2021/09/01 07:28:34;;;;;;;16.83;7.88;;;;;;;11.07;81.68;91532.91;5004167;28;20045;-89
2021/09/01 07:31:09;;;;;;;14.77;8.23;;;;;;;11.04;80.12;91530.19;5003874;28;20029;-89
2021/09/01 07:33:42;;;;;;;15.57;8.48;;;;;;;11.21;79.60;91532.69;4989068;28;20025;-89
2021/09/01 07:36:21;;;;;;;13.50;7.60;;;;;;;11.17;81.07;91543.00;4988204;28;20054;-89
2021/09/01 07:38:56;;;;;;;13.60;7.53;;;;;;;11.15;79.86;91547.00;4990195;28;20116;-90
2021/09/01 07:41:36;;;;;;;12.98;7.90;;;;;;;11.21;77.65;91546.50;5004599;28;20029;-89
2021/09/01 07:44:11;;;;;;;14.25;7.78;;;;;;;11.34;79.20;91544.75;5004817;28;20029;-90
2021/09/01 07:46:47;;;;;;;15.70;7.78;;;;;;;11.32;78.32;91540.91;5005202;28;20492;-89
2021/09/01 07:49:20;;;;;;;14.30;8.05;;;;;;;11.47;78.84;91542.97;5005550;28;20108;-91
2021/09/01 07:51:57;;;;;;;15.23;7.45;;;;;;;11.55;76.31;91542.13;4988721;28;20560;-90
2021/09/01 07:54:34;;;;;;;12.20;6.97;;;;;;;11.67;77.01;91546.66;4989275;28;20397;-91
2021/09/01 07:57:05;;;;;;;13.15;7.53;;;;;;;11.56;76.95;91545.53;5003250;28;20032;-90
2021/09/01 07:59:38;;;;;;;12.98;7.40;;;;;;;11.68;75.65;91535.91;5010330;28;20032;-90
2021/09/01 08:02:12;;;;;;;12.43;6.70;;;;;;;11.83;77.97;91554.69;5025029;28;20504;-91
2021/09/01 08:04:47;;;;;;;13.82;6.80;;;;;;;11.89;74.83;91551.59;5023841;28;20021;-93
2021/09/01 08:07:22;;;;;;;13.43;7.03;;;;;;;12.02;76.71;91549.81;5024835;28;20028;-91
2021/09/01 08:09:56;;;;;;;12.98;6.90;;;;;;;11.94;74.90;91551.41;5024161;28;20024;-90
2021/09/01 08:12:26;;;;;;;17.92;7.78;;;;;;;12.18;75.51;91540.25;5023999;28;20024;-90
2021/09/01 08:14:56;;;;;;;13.43;6.97;;;;;;;12.29;75.95;91545.84;5013156;28;20497;-90
2021/09/01 08:17:22;;;;;;;14.02;6.43;;;;;;;12.39;74.30;91534.22;5000469;28;20060;-90
2021/09/01 08:19:54;;;;;;;13.23;6.32;;;;;;;12.35;69.55;91536.72;4999682;28;20056;-90
2021/09/01 08:22:33;;;;;;;13.00;6.57;;;;;;;12.44;70.89;91532.19;5008878;28;20106;-90
2021/09/01 08:25:09;;;;;;;13.30;6.25;;;;;;;12.53;72.00;91539.16;5001484;28;20045;-89
2021/09/01 08:27:47;;;;;;;12.48;6.05;;;;;;;12.53;71.73;91544.38;5006723;28;20036;-90
2021/09/01 08:30:20;;;;;;;10.80;6.47;;;;;;;12.73;73.43;91540.94;4985323;28;20494;-90
2021/09/01 08:32:55;;;;;;;11.90;5.88;;;;;;;12.77;71.48;91539.19;5001375;28;20056;-89
2021/09/01 08:35:27;;;;;;;10.45;6.88;;;;;;;12.95;70.76;91541.59;5000550;28;20029;-90
2021/09/01 08:38:03;;;;;;;10.20;6.03;;;;;;;12.81;71.31;91536.69;5016198;28;20025;-90
2021/09/01 08:40:36;;;;;;;12.65;6.15;;;;;;;12.94;68.90;91543.47;4984820;28;20057;-90
2021/09/01 08:43:11;;;;;;;11.23;6.35;;;;;;;13.07;69.89;91549.44;5016469;28;20076;-90
2021/09/01 08:45:40;;;;;;;11.00;6.10;;;;;;;13.19;70.79;91549.47;4999758;28;20029;-90
2021/09/01 08:48:13;;;;;;;12.05;6.43;;;;;;;13.05;67.97;91551.66;4999029;28;20029;-90
2021/09/01 08:50:44;;;;;;;14.88;6.25;;;;;;;13.31;70.83;91557.31;4995984;28;20120;-90
2021/09/01 08:53:15;;;;;;;11.75;6.22;;;;;;;13.38;67.65;91552.31;5022767;28;20029;-90
2021/09/01 08:55:42;;;;;;;11.40;5.80;;;;;;;13.33;67.64;91560.38;5004497;28;20036;-90
2021/09/01 08:58:08;;;;;;;11.80;6.07;;;;;;;13.36;67.37;91564.22;5042273;28;20062;-91
2021/09/01 09:00:33;;;;;;;13.68;6.10;;;;;;;13.35;65.54;91555.56;5019869;28;20016;-91
2021/09/01 09:03:02;;;;;;;15.63;6.22;;;;;;;13.34;66.02;91556.66;5029716;28;20081;-90
2021/09/01 09:05:31;;;;;;;10.05;6.18;;;;;;;13.55;66.74;91555.78;5012534;28;20075;-90
2021/09/01 09:07:56;;;;;;;10.80;6.00;;;;;;;13.71;65.50;91551.41;5052037;28;20009;-89
2021/09/01 09:10:36;;;;;;;10.75;5.90;;;;;;;13.59;66.71;91554.78;5019082;28;20039;-90
2021/09/01 09:13:06;;;;;;;12.30;5.93;;;;;;;13.80;66.55;91562.50;5021039;28;20172;-89
2021/09/01 09:15:31;;;;;;;11.10;6.00;;;;;;;13.66;63.89;91551.59;5024268;28;20107;-90
2021/09/01 09:17:57;;;;;;;13.50;6.05;;;;;;;13.60;61.93;91552.91;5023866;28;20021;-88
2021/09/01 09:20:32;;;;;;;9.98;5.70;;;;;;;13.58;63.47;91560.38;4999049;28;20056;-88
2021/09/01 09:22:58;;;;;;;10.50;6.13;;;;;;;13.65;62.79;91555.34;4997509;28;20018;-90
2021/09/01 09:25:33;;;;;;;8.95;5.32;;;;;;;13.79;64.33;91560.97;5039153;28;20045;-89
2021/09/01 09:28:00;;;;;;;13.98;6.75;;;;;;;13.98;62.43;91551.75;5014841;28;20500;-89
2021/09/01 09:30:37;;;;;;;11.13;5.55;;;;;;;13.90;63.39;91560.50;5010907;28;20018;-89
2021/09/01 09:33:19;;;;;;;10.75;5.80;;;;;;;14.18;61.69;91560.53;4996519;28;20029;-88
2021/09/01 09:35:58;;;;;;;19.60;5.82;;;;;;;14.33;59.76;91568.44;5010412;28;20036;-88
2021/09/01 09:38:31;;;;;;;10.73;5.78;;;;;;;14.04;58.37;91574.00;5043650;28;20033;-88
2021/09/01 09:40:57;;;;;;;11.45;6.35;;;;;;;14.07;61.32;91566.25;5017118;28;20021;-88
2021/09/01 09:43:23;;;;;;;9.82;5.80;;;;;;;14.25;64.05;91571.97;5006244;28;20030;-92
2021/09/01 09:45:57;;;;;;;15.32;6.10;;;;;;;14.17;61.40;91575.50;5009592;28;20026;-90
2021/09/01 09:48:31;;;;;;;10.57;6.00;;;;;;;14.19;64.15;91577.78;4995746;28;20040;-89
2021/09/01 09:50:58;;;;;;;12.88;6.00;;;;;;;14.19;61.77;91578.53;5001422;28;20113;-90
2021/09/01 09:53:31;;;;;;;11.57;6.38;;;;;;;14.29;66.52;91572.81;5034749;28;20028;-89
2021/09/01 09:56:10;;;;;;;10.25;5.72;;;;;;;14.60;61.31;91570.66;5019351;28;20036;-89
2021/09/01 09:58:39;;;;;;;8.73;5.40;;;;;;;14.35;61.34;91576.72;5035678;28;20112;-90
2021/09/01 10:01:06;;;;;;;9.32;5.32;;;;;;;14.53;61.09;91571.97;5024276;28;20029;-89
2021/09/01 10:03:31;;;;;;;10.75;6.25;;;;;;;14.79;62.73;91571.50;5018455;28;20020;-88
2021/09/01 10:05:58;;;;;;;10.07;5.53;;;;;;;14.89;59.93;91561.63;5022380;28;20029;-90
2021/09/01 10:08:24;;;;;;;11.88;5.95;;;;;;;15.00;62.68;91565.25;5021008;28;20039;-91
2021/09/01 10:10:50;;;;;;;11.88;5.78;;;;;;;14.91;61.66;91559.41;5019656;28;20025;-90
2021/09/01 10:13:15;;;;;;;11.40;5.63;;;;;;;15.13;62.76;91558.06;5019225;28;20401;-91
2021/09/01 10:15:40;;;;;;;10.23;5.72;;;;;;;15.13;58.96;91550.19;5020122;28;20029;-89
2021/09/01 10:18:06;;;;;;;11.38;5.93;;;;;;;15.18;61.73;91542.81;4977460;23;1185323;-91
2021/09/01 10:20:32;;;;;;;10.10;5.50;;;;;;;15.41;62.21;91557.94;4994009;28;20029;-91
2021/09/01 10:23:05;;;;;;;12.77;6.40;;;;;;;15.19;58.37;91549.56;5019196;28;20081;-91
2021/09/01 10:26:00;;;;;;;14.38;6.25;;;;;;;15.17;62.58;91559.66;4988755;28;20493;-92
2021/09/01 10:28:33;;;;;;;11.55;6.35;;;;;;;15.38;59.33;91548.13;4985216;28;20041;-92
2021/09/01 10:31:18;;;;;;;9.05;5.50;;;;;;;15.35;57.62;91562.69;4980125;28;20030;-90
2021/09/01 10:33:54;;;;;;;9.30;5.40;;;;;;;15.35;59.31;91561.94;5013656;28;20385;-91
2021/09/01 10:36:32;;;;;;;9.05;4.68;;;;;;;15.29;57.85;91554.31;4996485;28;20026;-92
2021/09/01 10:39:31;;;;;;;9.85;5.50;;;;;;;15.41;57.27;91555.31;5014881;28;20026;-89
2021/09/01 10:42:39;;;;;;;11.00;5.30;;;;;;;15.69;58.52;91550.72;4998091;28;20032;-91
2021/09/01 10:45:24;;;;;;;8.68;5.05;;;;;;;15.70;59.36;91557.50;4997085;28;20037;-91
2021/09/01 10:48:04;;;;;;;10.13;5.00;;;;;;;15.57;55.69;91553.41;5011268;28;20029;-93
2021/09/01 10:50:40;;;;;;;11.55;5.65;;;;;;;15.80;56.64;91544.94;5011935;28;20182;-91
2021/09/01 10:53:25;;;;;;;10.65;5.57;;;;;;;15.72;56.73;91544.78;5016256;28;20057;-89
2021/09/01 10:56:00;;;;;;;9.68;5.53;;;;;;;15.98;60.81;91552.06;5032628;28;20037;-91
2021/09/01 10:58:49;;;;;;;12.73;6.00;;;;;;;15.96;55.38;91546.38;5016166;28;20089;-91
2021/09/01 11:01:24;;;;;;;8.13;5.60;;;;;;;16.05;56.47;91556.69;5016233;28;20021;-90
2021/09/01 11:04:03;;;;;;;10.60;5.50;;;;;;;16.04;55.12;91557.78;5008382;28;20022;-92
2021/09/01 11:06:37;;;;;;;9.77;5.13;;;;;;;16.32;59.06;91554.19;4981295;28;20029;-92
2021/09/01 11:09:18;;;;;;;10.10;5.20;;;;;;;16.21;55.18;91551.34;4980015;28;20022;-89
2021/09/01 11:12:04;;;;;;;12.75;5.45;;;;;;;16.32;56.00;91556.81;4965822;28;20026;-91
2021/09/01 11:14:35;;;;;;;9.75;4.85;;;;;;;16.32;54.45;91548.94;4999412;28;20102;-91
2021/09/01 11:17:00;;;;;;;8.77;5.03;;;;;;;16.27;54.81;91546.59;4998266;28;20034;-91
2021/09/01 11:19:30;;;;;;;10.55;5.38;;;;;;;16.62;56.70;91541.97;4982089;28;20022;-92
2021/09/01 11:22:04;;;;;;;12.38;5.80;;;;;;;16.56;56.57;91543.38;4997821;28;20037;-92
2021/09/01 11:24:34;;;;;;;10.82;5.38;;;;;;;16.64;53.02;91550.28;4981908;28;20169;-92
2021/09/01 11:27:02;;;;;;;10.07;5.13;;;;;;;16.75;54.33;91541.81;4989474;28;20556;-91
2021/09/01 11:29:34;;;;;;;9.48;4.88;;;;;;;16.96;56.33;91550.09;5004446;28;20387;-92
2021/09/01 11:32:04;;;;;;;9.73;4.68;;;;;;;16.73;51.55;91552.69;5014456;28;20037;-90
2021/09/01 11:34:34;;;;;;;9.93;4.75;;;;;;;16.77;55.59;91553.53;5020778;28;20041;-91
2021/09/01 11:37:04;;;;;;;10.00;4.90;;;;;;;17.08;54.03;91551.78;5040230;28;20018;-94
2021/09/01 11:39:49;;;;;;;9.55;4.82;;;;;;;16.97;48.99;91546.34;5021456;28;20414;-91
2021/09/01 11:42:18;;;;;;;9.98;4.78;;;;;;;17.04;51.39;91551.75;4985509;28;20486;-92
2021/09/01 11:45:03;;;;;;;9.88;5.35;;;;;;;16.94;50.12;91555.72;4982750;28;20036;-92
2021/09/01 11:47:40;;;;;;;9.68;4.68;;;;;;;17.19;52.51;91556.09;4985636;28;20022;-91
2021/09/01 11:50:08;;;;;;;8.98;5.00;;;;;;;17.20;52.25;91564.75;4984996;28;20037;-92
2021/09/01 11:52:37;;;;;;;7.30;4.43;;;;;;;17.37;53.50;91559.00;5016596;28;20018;-92
2021/09/01 11:55:10;;;;;;;8.27;4.95;;;;;;;17.53;54.54;91555.50;5031546;28;20014;-91
2021/09/01 11:57:40;;;;;;;9.45;5.38;;;;;;;17.46;54.52;91553.50;5000045;28;20257;-92
2021/09/01 12:00:10;;;;;;;9.98;5.13;;;;;;;17.49;52.95;91550.19;4999041;28;20022;-90
2021/09/01 12:02:41;;;;;;;8.05;4.57;;;;;;;17.69;53.53;91553.44;4999744;28;20144;-91
2021/09/01 12:05:10;;;;;;;9.73;4.75;;;;;;;17.53;51.37;91556.25;4999963;28;20022;-92
2021/09/01 12:07:40;;;;;;;10.93;5.40;;;;;;;17.79;54.38;91550.22;5022283;28;20017;-92
2021/09/01 12:10:10;;;;;;;11.40;5.40;;;;;;;17.79;53.42;91544.19;4990435;28;20421;-92
2021/09/01 12:12:40;;;;;;;10.55;5.25;;;;;;;17.80;53.93;91543.84;5012221;28;20148;-89